createdAt,value
2022-10-16T00:01:46.891Z,100357.00
2022-10-16T00:04:15.758Z,100362.31
2022-10-16T00:06:44.463Z,100370.81
2022-10-16T00:09:13.685Z,100366.63
2022-10-16T00:11:43.246Z,100359.78
2022-10-16T00:14:15.378Z,100363.75
2022-10-16T00:16:44.049Z,100363.94
2022-10-16T00:19:14.334Z,100370.47
2022-10-16T00:21:43.379Z,100370.25
2022-10-16T00:24:12.629Z,100362.59
2022-10-16T00:26:41.973Z,100360.75
2022-10-16T00:29:12.289Z,100362.75
2022-10-16T00:31:40.998Z,100364.25
2022-10-16T00:34:09.756Z,100367.81
2022-10-16T00:36:38.756Z,100374.72
2022-10-16T00:39:08.791Z,100378.72
2022-10-16T00:41:37.536Z,100387.53
2022-10-16T00:44:48.086Z,100393.72
2022-10-16T00:47:21.729Z,100391.91
2022-10-16T00:49:51.861Z,100396.69
2022-10-16T00:52:20.704Z,100394.72
2022-10-16T00:54:49.552Z,100399.38
2022-10-16T00:57:18.385Z,100398.03
2022-10-16T00:59:49.347Z,100387.38
2022-10-16T01:02:18.812Z,100398.88
2022-10-16T01:04:48.984Z,100387.41
2022-10-16T01:07:26.953Z,100396.38
2022-10-16T01:10:03.299Z,100386.25
2022-10-16T01:12:39.138Z,100386.41
2022-10-16T01:15:15.581Z,100395.03
2022-10-16T01:17:48.710Z,100400.88
2022-10-16T01:20:24.836Z,100393.88
2022-10-16T01:23:08.853Z,100398.03
2022-10-16T01:26:09.749Z,100405.19
2022-10-16T01:28:43.448Z,100413.00
2022-10-16T01:31:13.891Z,100415.66
2022-10-16T01:33:42.785Z,100426.66
2022-10-16T01:36:15.761Z,100417.66
2022-10-16T01:38:47.245Z,100425.66
2022-10-16T01:41:20.912Z,100427.97
2022-10-16T01:43:53.376Z,100421.16
2022-10-16T01:46:23.484Z,100420.31
2022-10-16T01:48:53.930Z,100418.00
2022-10-16T01:51:23.149Z,100416.66
2022-10-16T01:53:56.988Z,100409.84
2022-10-16T01:56:26.888Z,100410.16
2022-10-16T01:58:59.085Z,100411.81
2022-10-16T02:01:29.561Z,100403.50
2022-10-16T02:03:58.405Z,100411.16
2022-10-16T02:06:27.283Z,100413.31
2022-10-16T02:08:56.335Z,100406.16
2022-10-16T02:11:25.074Z,100411.47
2022-10-16T02:13:58.136Z,100408.34
2022-10-16T02:16:35.834Z,100404.00
2022-10-16T02:19:05.085Z,100412.66
2022-10-16T02:21:39.960Z,100408.66
2022-10-16T02:24:11.570Z,100410.97
2022-10-16T02:26:46.255Z,100411.78
2022-10-16T02:29:19.272Z,100398.31
2022-10-16T02:31:50.423Z,100399.69
2022-10-16T02:34:20.838Z,100401.81
2022-10-16T02:36:49.382Z,100397.84
2022-10-16T02:39:18.653Z,100402.69
2022-10-16T02:41:47.438Z,100414.00
2022-10-16T02:44:17.649Z,100418.00
2022-10-16T02:46:46.145Z,100412.00
2022-10-16T02:49:14.924Z,100413.81
2022-10-16T02:51:43.696Z,100416.94
2022-10-16T02:54:12.463Z,100415.63
2022-10-16T02:56:41.545Z,100421.44
2022-10-16T02:59:11.236Z,100427.75
2022-10-16T03:01:41.000Z,100427.09
2022-10-16T03:04:09.663Z,100429.59
2022-10-16T03:06:39.315Z,100437.84
2022-10-16T03:09:08.082Z,100437.53
2022-10-16T03:11:36.772Z,100430.88
2022-10-16T03:14:05.508Z,100436.19
2022-10-16T03:16:33.916Z,100443.19
2022-10-16T03:19:04.074Z,100437.03
2022-10-16T03:21:33.236Z,100443.31
2022-10-16T03:24:01.955Z,100441.03
2022-10-16T03:26:30.796Z,100442.72
2022-10-16T03:28:59.593Z,100447.03
2022-10-16T03:31:28.066Z,100452.00
2022-10-16T03:33:56.892Z,100458.63
2022-10-16T03:36:27.300Z,100449.84
2022-10-16T03:38:55.810Z,100457.31
2022-10-16T03:41:24.592Z,100457.81
2022-10-16T03:43:52.948Z,100453.66
2022-10-16T03:46:21.663Z,100464.59
2022-10-16T03:48:50.417Z,100464.72
2022-10-16T03:51:19.199Z,100465.41
2022-10-16T03:53:49.317Z,100457.75
2022-10-16T03:56:18.412Z,100458.22
2022-10-16T03:58:46.797Z,100453.38
2022-10-16T04:01:15.633Z,100456.72
2022-10-16T04:03:44.671Z,100467.97
2022-10-16T04:06:13.460Z,100462.66
2022-10-16T04:08:44.854Z,100464.00
2022-10-16T04:11:15.270Z,100461.00
2022-10-16T04:13:43.801Z,100462.97
2022-10-16T04:16:12.574Z,100461.97
2022-10-16T04:18:41.454Z,100473.28
2022-10-16T04:21:10.339Z,100475.09
2022-10-16T04:23:41.598Z,100475.94
2022-10-16T04:26:11.447Z,100481.25
2022-10-16T04:28:42.446Z,100489.28
2022-10-16T04:31:11.360Z,100490.94
2022-10-16T04:33:40.010Z,100484.97
2022-10-16T04:36:08.836Z,100485.75
2022-10-16T04:38:38.553Z,100483.91
2022-10-16T04:41:07.462Z,100492.34
2022-10-16T04:43:35.934Z,100489.47
2022-10-16T04:46:06.804Z,100488.94
2022-10-16T04:48:35.509Z,100485.47
2022-10-16T04:51:04.329Z,100491.91
2022-10-16T04:53:32.997Z,100496.31
2022-10-16T04:56:01.719Z,100499.44
2022-10-16T04:58:30.357Z,100494.44
2022-10-16T05:00:59.109Z,100493.59
2022-10-16T05:06:02.907Z,100507.81
2022-10-16T05:08:31.785Z,100514.94
2022-10-16T05:11:01.277Z,100519.56
2022-10-16T05:13:29.810Z,100518.50
2022-10-16T05:15:58.587Z,100521.16
2022-10-16T05:18:28.859Z,100524.06
2022-10-16T05:20:57.620Z,100525.78
2022-10-16T05:23:26.368Z,100523.69
2022-10-16T05:25:56.690Z,100518.13
2022-10-16T05:28:25.478Z,100514.34
2022-10-16T05:30:54.398Z,100514.06
2022-10-16T05:33:23.756Z,100513.22
2022-10-16T05:35:54.318Z,100514.81
2022-10-16T05:38:23.245Z,100515.34
2022-10-16T05:40:54.720Z,100520.88
2022-10-16T05:43:23.642Z,100516.34
2022-10-16T05:45:58.954Z,100519.97
2022-10-16T05:48:28.322Z,100524.13
2022-10-16T05:51:01.903Z,100534.47
2022-10-16T05:53:30.790Z,100541.22
2022-10-16T05:56:00.824Z,100539.53
2022-10-16T05:58:31.900Z,100541.00
2022-10-16T06:01:04.437Z,100546.06
2022-10-16T06:03:33.267Z,100545.69
2022-10-16T06:06:12.252Z,100543.72
2022-10-16T06:08:41.577Z,100547.03
2022-10-16T06:11:12.028Z,100554.34
2022-10-16T06:13:42.863Z,100561.53
2022-10-16T06:16:12.350Z,100554.13
2022-10-16T06:18:41.460Z,100558.03
2022-10-16T06:21:13.443Z,100554.22
2022-10-16T06:23:42.274Z,100541.66
2022-10-16T06:26:12.326Z,100541.44
2022-10-16T06:28:41.174Z,100541.84
2022-10-16T06:31:11.399Z,100534.03
2022-10-16T06:33:40.388Z,100552.66
2022-10-16T06:36:12.025Z,100548.31
2022-10-16T06:38:41.094Z,100544.41
2022-10-16T06:41:11.484Z,100553.16
2022-10-16T06:43:39.844Z,100555.09
2022-10-16T06:46:10.143Z,100561.13
2022-10-16T06:48:38.675Z,100564.63
2022-10-16T06:51:09.338Z,100556.84
2022-10-16T06:54:01.215Z,100560.59
2022-10-16T06:56:31.127Z,100569.88
2022-10-16T06:58:59.720Z,100568.66
2022-10-16T07:01:28.666Z,100577.69
2022-10-16T07:03:57.893Z,100584.19
2022-10-16T07:06:27.700Z,100579.03
2022-10-16T07:08:57.909Z,100590.53
2022-10-16T07:11:26.826Z,100584.03
2022-10-16T07:13:56.609Z,100581.00
2022-10-16T07:16:26.948Z,100585.59
2022-10-16T07:18:59.817Z,100588.84
2022-10-16T07:21:30.775Z,100601.13
2022-10-16T07:24:02.504Z,100597.88
2022-10-16T07:26:32.693Z,100602.41
2022-10-16T07:29:01.963Z,100585.59
2022-10-16T07:31:30.990Z,100562.97
2022-10-16T07:34:00.802Z,100559.13
2022-10-16T07:36:29.935Z,100557.03
2022-10-16T07:39:00.170Z,100554.59
2022-10-16T07:41:31.255Z,100562.16
2022-10-16T07:44:01.684Z,100576.19
2022-10-16T07:46:31.080Z,100573.31
2022-10-16T07:48:59.922Z,100572.28
2022-10-16T07:51:28.869Z,100565.66
2022-10-16T07:53:57.617Z,100569.25
2022-10-16T07:56:26.545Z,100565.16
2022-10-16T07:58:57.616Z,100559.31
2022-10-16T08:01:26.414Z,100571.03
2022-10-16T08:03:55.612Z,100579.25
2022-10-16T08:06:28.996Z,100579.19
2022-10-16T08:08:58.319Z,100582.91
2022-10-16T08:11:27.303Z,100584.19
2022-10-16T08:13:57.263Z,100596.09
2022-10-16T08:16:27.173Z,100588.75
2022-10-16T08:18:56.060Z,100595.28
2022-10-16T08:21:25.301Z,100591.19
2022-10-16T08:23:57.253Z,100589.66
2022-10-16T08:26:28.598Z,100608.91
2022-10-16T08:28:58.599Z,100600.09
2022-10-16T08:31:28.404Z,100605.06
2022-10-16T08:33:58.404Z,100607.13
2022-10-16T08:36:29.065Z,100613.09
2022-10-16T08:38:57.956Z,100611.75
2022-10-16T08:41:56.488Z,100621.81
2022-10-16T08:44:37.276Z,100612.94
2022-10-16T08:47:16.384Z,100609.50
2022-10-16T08:50:00.425Z,100627.69
2022-10-16T08:52:32.352Z,100613.31
2022-10-16T08:55:01.366Z,100626.16
2022-10-16T08:57:30.946Z,100618.69
2022-10-16T09:00:04.258Z,100622.41
2022-10-16T09:02:35.057Z,100630.66
2022-10-16T09:05:21.191Z,100630.19
2022-10-16T09:07:55.848Z,100637.09
2022-10-16T09:10:33.223Z,100636.03
2022-10-16T09:13:06.645Z,100633.72
2022-10-16T09:15:40.072Z,100624.28
2022-10-16T09:18:14.088Z,100632.44
2022-10-16T09:20:50.731Z,100615.41
2022-10-16T09:23:21.941Z,100604.69
2022-10-16T09:25:51.628Z,100618.03
2022-10-16T09:28:21.045Z,100602.28
2022-10-16T09:30:51.719Z,100609.72
2022-10-16T09:33:24.731Z,100615.31
2022-10-16T09:35:55.206Z,100611.22
2022-10-16T09:38:29.076Z,100611.59
2022-10-16T09:41:03.054Z,100616.03
2022-10-16T09:43:36.828Z,100618.50
2022-10-16T09:46:11.562Z,100609.13
2022-10-16T09:48:42.452Z,100612.81
2022-10-16T09:51:26.055Z,100615.94
2022-10-16T09:53:58.818Z,100607.72
2022-10-16T09:56:29.572Z,100608.41
2022-10-16T09:58:59.318Z,100619.91
2022-10-16T10:01:38.959Z,100613.25
2022-10-16T10:04:08.311Z,100611.28
2022-10-16T10:06:39.131Z,100617.63
2022-10-16T10:09:16.784Z,100617.47
2022-10-16T10:11:49.635Z,100622.28
2022-10-16T10:14:27.516Z,100622.78
2022-10-16T10:17:12.676Z,100620.00
2022-10-16T10:19:43.665Z,100613.78
2022-10-16T10:22:25.756Z,100606.88
2022-10-16T10:25:18.206Z,100621.94
2022-10-16T10:27:58.610Z,100610.53
2022-10-16T10:30:32.115Z,100607.59
2022-10-16T10:33:14.319Z,100601.44
2022-10-16T10:35:47.822Z,100594.88
2022-10-16T10:38:27.327Z,100604.56
2022-10-16T10:41:01.353Z,100615.06
2022-10-16T10:43:42.415Z,100616.31
2022-10-16T10:46:13.954Z,100608.13
2022-10-16T10:48:57.289Z,100603.78
2022-10-16T10:51:31.506Z,100610.47
2022-10-16T10:54:09.597Z,100604.63
2022-10-16T10:56:45.836Z,100606.84
2022-10-16T10:59:27.495Z,100604.41
2022-10-16T11:01:58.941Z,100602.28
2022-10-16T11:04:53.152Z,100606.69
2022-10-16T11:07:26.408Z,100607.81
2022-10-16T11:09:58.586Z,100603.09
2022-10-16T11:12:30.320Z,100607.84
2022-10-16T11:15:04.249Z,100613.59
2022-10-16T11:17:36.292Z,100593.34
2022-10-16T11:20:15.697Z,100592.78
2022-10-16T11:22:48.245Z,100597.38
2022-10-16T11:25:21.102Z,100594.50
2022-10-16T11:27:53.467Z,100598.72
2022-10-16T11:30:24.246Z,100599.84
2022-10-16T11:33:07.116Z,100612.09
2022-10-16T11:35:43.121Z,100612.69
2022-10-16T11:38:16.838Z,100612.94
2022-10-16T11:40:46.922Z,100612.25
2022-10-16T11:43:17.107Z,100617.44
2022-10-16T11:45:48.619Z,100600.03
2022-10-16T11:48:24.222Z,100591.56
2022-10-16T11:50:56.217Z,100585.63
2022-10-16T11:53:42.434Z,100589.47
2022-10-16T11:56:14.863Z,100580.72
2022-10-16T11:58:50.822Z,100581.19
2022-10-16T12:04:02.682Z,100601.19
2022-10-16T12:06:38.539Z,100600.00
2022-10-16T12:09:07.901Z,100593.81
2022-10-16T12:11:39.339Z,100601.03
2022-10-16T12:14:23.798Z,100602.34
2022-10-16T12:16:57.348Z,100608.97
2022-10-16T12:19:29.183Z,100613.03
2022-10-16T12:22:01.443Z,100609.66
2022-10-16T12:24:35.866Z,100610.81
2022-10-16T12:27:05.466Z,100612.09
2022-10-16T12:29:37.544Z,100611.09
2022-10-16T12:32:10.855Z,100612.38
2022-10-16T12:34:41.872Z,100611.81
2022-10-16T12:37:17.630Z,100617.59
2022-10-16T12:39:46.481Z,100617.38
2022-10-16T12:42:36.027Z,100620.09
2022-10-16T12:45:24.988Z,100616.44
2022-10-16T12:47:55.650Z,100614.53
2022-10-16T12:50:27.924Z,100617.53
2022-10-16T12:52:57.695Z,100637.22
2022-10-16T12:55:26.750Z,100627.63
2022-10-16T12:58:11.969Z,100633.38
2022-10-16T13:00:46.893Z,100624.81
2022-10-16T13:03:56.867Z,100618.53
2022-10-16T13:06:35.625Z,100614.34
2022-10-16T13:09:22.354Z,100613.16
2022-10-16T13:12:15.527Z,100621.31
2022-10-16T13:15:04.657Z,100633.22
2022-10-16T13:17:39.631Z,100636.34
2022-10-16T13:20:16.683Z,100641.31
2022-10-16T13:22:55.280Z,100642.97
2022-10-16T13:25:37.049Z,100644.47
2022-10-16T13:28:08.017Z,100642.81
2022-10-16T13:30:39.570Z,100647.72
2022-10-16T13:33:17.696Z,100652.53
2022-10-16T13:35:52.030Z,100660.13
2022-10-16T13:38:22.208Z,100655.78
2022-10-16T13:40:54.458Z,100654.81
2022-10-16T13:43:26.144Z,100661.66
2022-10-16T13:45:56.447Z,100662.69
2022-10-16T13:48:25.201Z,100651.16
2022-10-16T13:51:05.047Z,100657.25
2022-10-16T13:53:35.191Z,100661.16
2022-10-16T13:56:07.297Z,100659.69
2022-10-16T13:58:35.813Z,100656.38
2022-10-16T14:01:07.056Z,100650.75
2022-10-16T14:03:37.803Z,100647.31
2022-10-16T14:06:10.978Z,100650.78
2022-10-16T14:08:45.199Z,100654.97
2022-10-16T14:11:15.491Z,100655.09
2022-10-16T14:13:47.095Z,100649.78
2022-10-16T14:16:20.271Z,100654.75
2022-10-16T14:21:23.091Z,100661.50
2022-10-16T14:23:51.839Z,100662.13
2022-10-16T14:26:23.572Z,100665.34
2022-10-16T14:29:05.184Z,100669.81
2022-10-16T14:31:37.419Z,100668.13
2022-10-16T14:34:06.798Z,100670.72
2022-10-16T14:36:36.120Z,100674.81
2022-10-16T14:39:07.083Z,100680.19
2022-10-16T14:41:45.511Z,100676.84
2022-10-16T14:44:14.659Z,100670.16
2022-10-16T14:46:44.231Z,100669.75
2022-10-16T14:49:19.295Z,100677.56
2022-10-16T14:51:48.526Z,100682.72
2022-10-16T14:54:19.431Z,100676.53
2022-10-16T14:56:51.498Z,100674.28
2022-10-16T14:59:30.440Z,100679.94
2022-10-16T15:01:59.034Z,100686.53
2022-10-16T15:04:27.809Z,100682.88
2022-10-16T15:06:56.580Z,100686.13
2022-10-16T15:09:25.489Z,100691.56
2022-10-16T15:11:55.714Z,100686.13
2022-10-16T15:14:24.319Z,100703.25
2022-10-16T15:16:53.472Z,100709.41
2022-10-16T15:19:22.366Z,100708.06
2022-10-16T15:21:51.973Z,100699.56
2022-10-16T15:24:21.612Z,100706.41
2022-10-16T15:26:53.306Z,100713.28
2022-10-16T15:29:23.571Z,100711.63
2022-10-16T15:31:54.593Z,100705.88
2022-10-16T15:34:23.355Z,100700.09
2022-10-16T15:36:54.534Z,100698.84
2022-10-16T15:39:23.701Z,100702.66
2022-10-16T15:41:54.418Z,100708.31
2022-10-16T15:44:27.318Z,100706.13
2022-10-16T15:46:57.081Z,100714.53
2022-10-16T15:49:25.937Z,100717.59
2022-10-16T15:51:56.051Z,100724.16
2022-10-16T15:54:24.938Z,100728.44
2022-10-16T15:56:53.736Z,100726.94
2022-10-16T15:59:24.840Z,100725.22
2022-10-16T16:01:53.474Z,100728.16
2022-10-16T16:04:42.732Z,100729.56
2022-10-16T16:07:12.108Z,100729.94
2022-10-16T16:09:40.992Z,100743.69
2022-10-16T16:12:09.736Z,100751.75
2022-10-16T16:14:40.001Z,100751.94
2022-10-16T16:17:08.731Z,100747.22
2022-10-16T16:19:38.576Z,100757.31
2022-10-16T16:22:09.572Z,100755.94
2022-10-16T16:24:39.830Z,100758.78
2022-10-16T16:27:08.950Z,100761.19
2022-10-16T16:29:38.247Z,100765.53
2022-10-16T16:32:08.623Z,100764.88
2022-10-16T16:34:37.101Z,100765.81
2022-10-16T16:37:05.829Z,100770.63
2022-10-16T16:39:34.852Z,100774.03
2022-10-16T16:42:05.160Z,100772.47
2022-10-16T16:44:33.723Z,100771.44
2022-10-16T16:47:02.524Z,100781.69
2022-10-16T16:49:32.704Z,100782.88
2022-10-16T16:52:01.267Z,100791.94
2022-10-16T16:54:30.346Z,100786.94
2022-10-16T16:56:59.206Z,100792.63
2022-10-16T16:59:28.162Z,100800.00
2022-10-16T17:01:57.259Z,100796.59
2022-10-16T17:04:26.170Z,100796.75
2022-10-16T17:06:56.607Z,100789.72
2022-10-16T17:09:26.071Z,100805.50
2022-10-16T17:11:54.962Z,100810.19
2022-10-16T17:14:23.882Z,100803.72
2022-10-16T17:16:54.282Z,100809.94
2022-10-16T17:19:22.960Z,100813.97
2022-10-16T17:21:52.519Z,100825.03
2022-10-16T17:24:22.705Z,100824.72
2022-10-16T17:26:51.466Z,100826.91
2022-10-16T17:29:20.474Z,100823.13
2022-10-16T17:31:50.607Z,100827.47
2022-10-16T17:34:19.715Z,100829.81
2022-10-16T17:36:48.558Z,100839.06
2022-10-16T17:39:19.337Z,100834.72
2022-10-16T17:41:50.315Z,100840.22
2022-10-16T17:44:22.590Z,100845.78
2022-10-16T17:46:52.759Z,100843.91
2022-10-16T17:49:22.201Z,100845.94
2022-10-16T17:51:52.575Z,100848.78
2022-10-16T17:54:21.433Z,100859.03
2022-10-16T17:56:51.521Z,100863.75
2022-10-16T17:59:23.310Z,100862.25
2022-10-16T18:01:52.283Z,100869.25
2022-10-16T18:04:21.292Z,100872.94
2022-10-16T18:06:50.353Z,100874.13
2022-10-16T18:09:21.050Z,100875.50
2022-10-16T18:11:59.623Z,100872.34
2022-10-16T18:14:29.411Z,100873.34
2022-10-16T18:16:58.401Z,100870.66
2022-10-16T18:19:27.501Z,100865.81
2022-10-16T18:21:56.775Z,100868.03
2022-10-16T18:24:26.145Z,100866.22
2022-10-16T18:26:57.706Z,100871.22
2022-10-16T18:29:27.997Z,100879.75
2022-10-16T18:31:56.515Z,100889.75
2022-10-16T18:34:27.030Z,100878.59
2022-10-16T18:36:57.668Z,100883.28
2022-10-16T18:39:26.669Z,100884.28
2022-10-16T18:42:00.093Z,100888.66
2022-10-16T18:44:31.354Z,100890.66
2022-10-16T18:47:00.205Z,100887.97
2022-10-16T18:49:29.715Z,100898.00
2022-10-16T18:51:58.774Z,100893.50
2022-10-16T18:54:27.556Z,100890.50
2022-10-16T18:56:58.437Z,100902.19
2022-10-16T18:59:27.666Z,100900.38
2022-10-16T19:01:58.069Z,100899.19
2022-10-16T19:04:28.539Z,100905.38
2022-10-16T19:06:57.043Z,100907.72
2022-10-16T19:09:26.441Z,100912.25
2022-10-16T19:11:55.141Z,100923.75
2022-10-16T19:14:25.861Z,100923.25
2022-10-16T19:16:54.286Z,100936.41
2022-10-16T19:19:24.010Z,100940.63
2022-10-16T19:21:58.161Z,100946.09
2022-10-16T19:24:27.485Z,100947.44
2022-10-16T19:26:58.038Z,100941.41
2022-10-16T19:29:28.336Z,100951.44
2022-10-16T19:31:56.868Z,100947.13
2022-10-16T19:34:27.194Z,100956.13
2022-10-16T19:36:56.012Z,100955.47
2022-10-16T19:39:25.389Z,100962.31
2022-10-16T19:41:54.120Z,100950.94
2022-10-16T19:44:22.846Z,100963.13
2022-10-16T19:46:52.608Z,100964.13
2022-10-16T19:49:22.197Z,100965.13
2022-10-16T19:51:51.985Z,100970.00
2022-10-16T19:54:20.854Z,100973.00
2022-10-16T19:56:51.091Z,100969.81
2022-10-16T19:59:20.439Z,100971.78
2022-10-16T20:01:49.233Z,100980.34
2022-10-16T20:04:19.404Z,100979.47
2022-10-16T20:06:48.136Z,100980.16
2022-10-16T20:09:17.014Z,100984.84
2022-10-16T20:11:45.696Z,100984.16
2022-10-16T20:14:14.559Z,100987.00
2022-10-16T20:16:43.273Z,100999.19
2022-10-16T20:19:12.455Z,101002.53
2022-10-16T20:21:42.673Z,100996.00
2022-10-16T20:24:11.581Z,100998.84
2022-10-16T20:26:40.545Z,101005.16
2022-10-16T20:29:10.685Z,101003.84
2022-10-16T20:31:39.860Z,101009.00
2022-10-16T20:34:09.898Z,101013.16
2022-10-16T20:36:42.874Z,101013.41
2022-10-16T20:39:14.899Z,101028.22
2022-10-16T20:41:43.696Z,101035.38
2022-10-16T20:44:12.535Z,101032.81
2022-10-16T20:46:41.784Z,101032.00
2022-10-16T20:49:11.621Z,101040.38
2022-10-16T20:51:56.622Z,101034.88
2022-10-16T20:54:26.709Z,101040.91
2022-10-16T20:56:55.464Z,101042.56
2022-10-16T20:59:24.240Z,101046.19
2022-10-16T21:01:53.975Z,101040.41
2022-10-16T21:04:22.725Z,101043.34
2022-10-16T21:06:51.485Z,101037.66
2022-10-16T21:09:20.307Z,101042.31
2022-10-16T21:11:50.607Z,101036.38
2022-10-16T21:14:19.552Z,101040.81
2022-10-16T21:16:47.999Z,101043.53
2022-10-16T21:19:16.789Z,101043.66
2022-10-16T21:21:45.505Z,101044.47
2022-10-16T21:24:16.626Z,101039.59
2022-10-16T21:26:46.374Z,101045.59
2022-10-16T21:29:16.772Z,101048.81
2022-10-16T21:31:45.367Z,101042.25
2022-10-16T21:34:14.084Z,101050.25
2022-10-16T21:36:44.278Z,101050.25
2022-10-16T21:39:14.425Z,101059.88
2022-10-16T21:41:46.075Z,101066.53
2022-10-16T21:44:17.114Z,101056.84
2022-10-16T21:46:46.314Z,101060.69
2022-10-16T21:49:17.220Z,101073.19
2022-10-16T21:51:47.533Z,101070.16
2022-10-16T21:54:17.955Z,101074.63
2022-10-16T21:56:46.437Z,101068.16
2022-10-16T21:59:16.982Z,101069.31
2022-10-16T22:01:45.512Z,101072.13
2022-10-16T22:04:16.094Z,101075.94
2022-10-16T22:06:45.196Z,101083.63
2022-10-16T22:09:14.749Z,101070.16
2022-10-16T22:11:44.785Z,101077.78
2022-10-16T22:14:16.936Z,101086.78
2022-10-16T22:16:45.876Z,101088.91
2022-10-16T22:19:15.670Z,101088.22
2022-10-16T22:21:46.134Z,101086.56
2022-10-16T22:24:15.470Z,101091.34
2022-10-16T22:26:45.591Z,101090.06
2022-10-16T22:29:16.757Z,101099.34
2022-10-16T22:31:45.589Z,101100.34
2022-10-16T22:34:16.062Z,101094.31
2022-10-16T22:36:44.530Z,101102.88
2022-10-16T22:39:13.255Z,101103.88
2022-10-16T22:41:42.070Z,101111.19
2022-10-16T22:44:13.260Z,101114.22
2022-10-16T22:46:43.036Z,101112.47
2022-10-16T22:49:11.783Z,101117.66
2022-10-16T22:51:40.880Z,101114.84
2022-10-16T22:54:09.692Z,101117.50
2022-10-16T22:56:38.564Z,101115.53
2022-10-16T22:59:08.055Z,101122.97
2022-10-16T23:01:39.515Z,101129.47
2022-10-16T23:04:10.433Z,101125.25
2022-10-16T23:06:40.179Z,101126.41
2022-10-16T23:09:09.070Z,101123.75
2022-10-16T23:11:37.956Z,101125.03
2022-10-16T23:14:06.849Z,101126.31
2022-10-16T23:16:35.288Z,101126.94
2022-10-16T23:19:04.012Z,101134.31
2022-10-16T23:21:34.192Z,101133.06
2022-10-16T23:24:02.942Z,101136.16
2022-10-16T23:26:31.621Z,101139.25
2022-10-16T23:29:00.741Z,101146.28
2022-10-16T23:31:30.503Z,101147.56
2022-10-16T23:33:59.791Z,101147.31
2022-10-16T23:36:28.770Z,101148.03
2022-10-16T23:38:59.109Z,101157.69
2022-10-16T23:41:28.021Z,101150.41
2022-10-16T23:43:56.509Z,101155.03
2022-10-16T23:48:59.327Z,101169.63
2022-10-16T23:51:28.083Z,101174.25
2022-10-16T23:54:00.719Z,101186.88
2022-10-16T23:56:29.658Z,101188.06
2022-10-16T23:58:58.414Z,101191.00
